RW275 LLBG-LLER
Flight info
| Callsign | RW275 |
|---|---|
| Flight time | 1h 6m |
| Altitude | 14000 |
| Route | TOMAL J10 NURIT |
| Aircraft | DA42/L-VGDW/C |
Departure
| Time | 2026-04-22 09:33 |
|---|---|
| Airport | Ben Gurion International Airport (LLBG) |
Arrival
| Time | 2026-04-22 10:40 |
|---|---|
| Airport | Ramon International Airport (LLER) |
| Time | Latitude | Longitude | Altitude | Speed | Heading |
|---|---|---|---|---|---|
| 2026-04-22 09:13 | 32.00813 | 34.89675 | 114 ft | 0 kts | 298° |
| 2026-04-22 09:23 | 32.00795 | 34.89699 | 114 ft | 8 kts | 112° |
| 2026-04-22 09:24 | 32.00794 | 34.89740 | 114 ft | 5 kts | 26° |
| 2026-04-22 09:24 | 32.00828 | 34.89742 | 114 ft | 5 kts | 317° |
| 2026-04-22 09:24 | 32.00848 | 34.89704 | 114 ft | 5 kts | 301° |
| 2026-04-22 09:24 | 32.00868 | 34.89665 | 114 ft | 6 kts | 299° |
| 2026-04-22 09:25 | 32.00887 | 34.89622 | 114 ft | 6 kts | 300° |
| 2026-04-22 09:25 | 32.00907 | 34.89582 | 115 ft | 5 kts | 298° |
| 2026-04-22 09:25 | 32.00909 | 34.89576 | 115 ft | 0 kts | 297° |
| 2026-04-22 09:26 | 32.00918 | 34.89556 | 115 ft | 11 kts | 298° |
| 2026-04-22 09:26 | 32.00987 | 34.89409 | 114 ft | 28 kts | 300° |
| 2026-04-22 09:26 | 32.01106 | 34.89334 | 114 ft | 27 kts | 28° |
| 2026-04-22 09:27 | 32.01248 | 34.89429 | 115 ft | 20 kts | 28° |
| 2026-04-22 09:27 | 32.01357 | 34.89500 | 114 ft | 16 kts | 26° |
| 2026-04-22 09:27 | 32.01450 | 34.89559 | 114 ft | 14 kts | 28° |
| 2026-04-22 09:27 | 32.01533 | 34.89611 | 114 ft | 13 kts | 27° |
| 2026-04-22 09:28 | 32.01547 | 34.89620 | 114 ft | 0 kts | 30° |
| 2026-04-22 09:28 | 32.01548 | 34.89621 | 114 ft | 2 kts | 28° |
| 2026-04-22 09:29 | 32.01635 | 34.89677 | 114 ft | 21 kts | 26° |
| 2026-04-22 09:29 | 32.01669 | 34.89697 | 113 ft | 0 kts | 26° |
| 2026-04-22 09:30 | 32.01687 | 34.89708 | 113 ft | 9 kts | 28° |
| 2026-04-22 09:31 | 32.01762 | 34.89756 | 113 ft | 14 kts | 28° |
| 2026-04-22 09:31 | 32.01841 | 34.89751 | 113 ft | 11 kts | 294° |
| 2026-04-22 09:31 | 32.01842 | 34.89710 | 112 ft | 0 kts | 260° |
| 2026-04-22 09:32 | 32.01841 | 34.89707 | 112 ft | 7 kts | 261° |
| 2026-04-22 09:32 | 32.01783 | 34.89359 | 112 ft | 74 kts | 261° |
| 2026-04-22 09:33 | 32.01658 | 34.88637 | 208 ft | 100 kts | 262° |
| 2026-04-22 09:33 | 32.01514 | 34.87798 | 529 ft | 106 kts | 261° |
| 2026-04-22 09:33 | 32.01386 | 34.86981 | 1022 ft | 94 kts | 266° |
| 2026-04-22 09:33 | 32.01085 | 34.86305 | 1517 ft | 98 kts | 230° |
| 2026-04-22 09:34 | 32.00437 | 34.86004 | 1937 ft | 105 kts | 181° |
| 2026-04-22 09:34 | 31.99791 | 34.86283 | 2410 ft | 97 kts | 136° |
| 2026-04-22 09:34 | 31.99401 | 34.86910 | 2793 ft | 94 kts | 121° |
| 2026-04-22 09:35 | 31.98735 | 34.88142 | 3694 ft | 88 kts | 121° |
| 2026-04-22 09:35 | 31.98393 | 34.88775 | 4065 ft | 94 kts | 122° |
| 2026-04-22 09:35 | 31.98042 | 34.89426 | 4371 ft | 95 kts | 121° |
| 2026-04-22 09:35 | 31.97682 | 34.90092 | 4687 ft | 97 kts | 122° |
| 2026-04-22 09:36 | 31.97312 | 34.90771 | 5024 ft | 100 kts | 122° |
| 2026-04-22 09:36 | 31.96942 | 34.91470 | 5348 ft | 101 kts | 117° |
| 2026-04-22 09:36 | 31.96641 | 34.92226 | 5689 ft | 103 kts | 115° |
| 2026-04-22 09:36 | 31.96343 | 34.92994 | 6024 ft | 103 kts | 114° |
| 2026-04-22 09:37 | 31.96037 | 34.93776 | 6363 ft | 107 kts | 115° |
| 2026-04-22 09:37 | 31.95726 | 34.94569 | 6705 ft | 107 kts | 115° |
| 2026-04-22 09:37 | 31.95405 | 34.95380 | 7023 ft | 110 kts | 116° |
| 2026-04-22 09:37 | 31.95080 | 34.96201 | 7385 ft | 110 kts | 117° |
| 2026-04-22 09:38 | 31.94753 | 34.97019 | 7725 ft | 111 kts | 117° |
| 2026-04-22 09:38 | 31.94421 | 34.97860 | 8037 ft | 114 kts | 117° |
| 2026-04-22 09:38 | 31.94087 | 34.98695 | 8402 ft | 115 kts | 119° |
| 2026-04-22 09:38 | 31.93748 | 34.99548 | 8762 ft | 114 kts | 118° |
| 2026-04-22 09:39 | 31.93412 | 35.00394 | 9128 ft | 115 kts | 118° |
| 2026-04-22 09:39 | 31.93072 | 35.01248 | 9495 ft | 116 kts | 118° |
| 2026-04-22 09:39 | 31.92727 | 35.02112 | 9853 ft | 117 kts | 118° |
| 2026-04-22 09:39 | 31.92385 | 35.02972 | 10176 ft | 118 kts | 118° |
| 2026-04-22 09:40 | 31.92038 | 35.03843 | 10502 ft | 118 kts | 118° |
| 2026-04-22 09:40 | 31.91690 | 35.04717 | 10824 ft | 119 kts | 118° |
| 2026-04-22 09:40 | 31.91337 | 35.05604 | 11159 ft | 120 kts | 118° |
| 2026-04-22 09:40 | 31.90982 | 35.06494 | 11493 ft | 120 kts | 118° |
| 2026-04-22 09:41 | 31.90625 | 35.07388 | 11826 ft | 121 kts | 118° |
| 2026-04-22 09:41 | 31.90265 | 35.08291 | 12147 ft | 122 kts | 118° |
| 2026-04-22 09:41 | 31.89904 | 35.09195 | 12487 ft | 123 kts | 117° |
| 2026-04-22 09:41 | 31.89541 | 35.10106 | 12830 ft | 123 kts | 117° |
| 2026-04-22 09:42 | 31.89159 | 35.11059 | 12994 ft | 142 kts | 117° |
| 2026-04-22 09:42 | 31.88700 | 35.12195 | 12991 ft | 165 kts | 117° |
| 2026-04-22 09:42 | 31.88190 | 35.13471 | 12986 ft | 178 kts | 116° |
| 2026-04-22 09:42 | 31.87657 | 35.14814 | 12983 ft | 184 kts | 116° |
| 2026-04-22 09:43 | 31.87110 | 35.16186 | 12990 ft | 187 kts | 117° |
| 2026-04-22 09:43 | 31.86260 | 35.17308 | 12985 ft | 186 kts | 153° |
| 2026-04-22 09:43 | 31.85036 | 35.17618 | 12989 ft | 180 kts | 190° |
| 2026-04-22 09:43 | 31.83828 | 35.17292 | 12986 ft | 179 kts | 195° |
| 2026-04-22 09:44 | 31.82580 | 35.17117 | 12986 ft | 182 kts | 186° |
| 2026-04-22 09:44 | 31.81310 | 35.17088 | 12988 ft | 183 kts | 184° |
| 2026-04-22 09:44 | 31.80031 | 35.17090 | 12984 ft | 183 kts | 184° |
| 2026-04-22 09:44 | 31.78770 | 35.17088 | 12985 ft | 184 kts | 184° |
| 2026-04-22 09:45 | 31.77472 | 35.17080 | 12984 ft | 184 kts | 184° |
| 2026-04-22 09:45 | 31.76208 | 35.17069 | 12984 ft | 184 kts | 184° |
| 2026-04-22 09:45 | 31.74927 | 35.17057 | 12985 ft | 184 kts | 184° |
| 2026-04-22 09:45 | 31.73646 | 35.17048 | 12984 ft | 184 kts | 184° |
| 2026-04-22 09:46 | 31.72370 | 35.17036 | 12987 ft | 183 kts | 184° |
| 2026-04-22 09:46 | 31.71092 | 35.17029 | 12988 ft | 184 kts | 184° |
| 2026-04-22 09:46 | 31.69811 | 35.17022 | 12990 ft | 185 kts | 184° |
| 2026-04-22 09:46 | 31.68526 | 35.17013 | 12986 ft | 184 kts | 184° |
| 2026-04-22 09:47 | 31.67245 | 35.17003 | 12985 ft | 184 kts | 184° |
| 2026-04-22 09:47 | 31.65964 | 35.16993 | 12983 ft | 184 kts | 184° |
| 2026-04-22 09:47 | 31.64686 | 35.16983 | 12984 ft | 184 kts | 184° |
| 2026-04-22 09:47 | 31.63410 | 35.16975 | 12984 ft | 183 kts | 184° |
| 2026-04-22 09:48 | 31.62137 | 35.16964 | 12981 ft | 183 kts | 184° |
| 2026-04-22 09:48 | 31.60861 | 35.16954 | 12980 ft | 183 kts | 184° |
| 2026-04-22 09:48 | 31.59589 | 35.16946 | 12978 ft | 183 kts | 184° |
| 2026-04-22 09:48 | 31.58318 | 35.16937 | 12979 ft | 183 kts | 184° |
| 2026-04-22 09:49 | 31.57045 | 35.16928 | 12974 ft | 183 kts | 184° |
| 2026-04-22 09:49 | 31.55774 | 35.16919 | 12975 ft | 182 kts | 184° |
| 2026-04-22 09:49 | 31.54505 | 35.16909 | 12972 ft | 182 kts | 184° |
| 2026-04-22 09:49 | 31.53241 | 35.16899 | 12976 ft | 182 kts | 184° |
| 2026-04-22 09:50 | 31.51979 | 35.16891 | 12981 ft | 181 kts | 184° |
| 2026-04-22 09:50 | 31.50717 | 35.16882 | 12980 ft | 181 kts | 184° |
| 2026-04-22 09:50 | 31.49459 | 35.16871 | 12980 ft | 181 kts | 184° |
| 2026-04-22 09:50 | 31.48202 | 35.16864 | 12976 ft | 181 kts | 184° |
| 2026-04-22 09:51 | 31.46944 | 35.16853 | 12979 ft | 181 kts | 183° |
| 2026-04-22 09:51 | 31.45684 | 35.16844 | 12977 ft | 181 kts | 184° |
| 2026-04-22 09:51 | 31.44426 | 35.16835 | 12979 ft | 181 kts | 184° |
| 2026-04-22 09:51 | 31.43167 | 35.16826 | 12979 ft | 181 kts | 184° |
| 2026-04-22 09:52 | 31.41905 | 35.16817 | 12978 ft | 182 kts | 183° |
| 2026-04-22 09:52 | 31.40639 | 35.16808 | 12976 ft | 182 kts | 184° |
| 2026-04-22 09:52 | 31.39373 | 35.16798 | 12966 ft | 182 kts | 183° |
| 2026-04-22 09:52 | 31.38111 | 35.16788 | 12967 ft | 181 kts | 183° |
| 2026-04-22 09:53 | 31.36850 | 35.16781 | 12970 ft | 181 kts | 183° |
| 2026-04-22 09:53 | 31.35592 | 35.16772 | 12970 ft | 181 kts | 183° |
| 2026-04-22 09:53 | 31.34350 | 35.16762 | 12972 ft | 181 kts | 183° |
| 2026-04-22 09:53 | 31.33073 | 35.16752 | 12971 ft | 181 kts | 183° |
| 2026-04-22 09:54 | 31.31812 | 35.16744 | 12968 ft | 181 kts | 183° |
| 2026-04-22 09:54 | 31.30566 | 35.16735 | 12967 ft | 181 kts | 183° |
| 2026-04-22 09:54 | 31.29306 | 35.16725 | 12967 ft | 181 kts | 183° |
| 2026-04-22 09:54 | 31.28049 | 35.16715 | 12968 ft | 180 kts | 183° |
| 2026-04-22 09:55 | 31.26791 | 35.16706 | 12972 ft | 181 kts | 183° |
| 2026-04-22 09:55 | 31.25531 | 35.16697 | 12970 ft | 181 kts | 183° |
| 2026-04-22 09:55 | 31.24272 | 35.16688 | 12971 ft | 181 kts | 183° |
| 2026-04-22 09:55 | 31.23014 | 35.16680 | 12970 ft | 181 kts | 183° |
| 2026-04-22 09:56 | 31.21756 | 35.16670 | 12965 ft | 181 kts | 183° |
| 2026-04-22 09:56 | 31.20499 | 35.16661 | 12963 ft | 180 kts | 183° |
| 2026-04-22 09:56 | 31.19246 | 35.16653 | 12965 ft | 180 kts | 183° |
| 2026-04-22 09:56 | 31.17988 | 35.16644 | 12963 ft | 181 kts | 183° |
| 2026-04-22 09:57 | 31.16730 | 35.16633 | 12957 ft | 181 kts | 183° |
| 2026-04-22 09:57 | 31.15479 | 35.16624 | 12967 ft | 180 kts | 183° |
| 2026-04-22 09:57 | 31.14223 | 35.16615 | 12968 ft | 180 kts | 183° |
| 2026-04-22 09:57 | 31.12966 | 35.16605 | 12968 ft | 181 kts | 183° |
| 2026-04-22 09:58 | 31.11705 | 35.16596 | 12962 ft | 181 kts | 183° |
| 2026-04-22 09:58 | 31.10452 | 35.16588 | 12963 ft | 180 kts | 183° |
| 2026-04-22 09:58 | 31.09201 | 35.16580 | 12963 ft | 180 kts | 183° |
| 2026-04-22 09:58 | 31.07951 | 35.16570 | 12961 ft | 180 kts | 183° |
| 2026-04-22 09:59 | 31.06699 | 35.16562 | 12964 ft | 180 kts | 183° |
| 2026-04-22 09:59 | 31.05444 | 35.16553 | 12962 ft | 180 kts | 183° |
| 2026-04-22 09:59 | 31.04191 | 35.16543 | 12963 ft | 180 kts | 183° |
| 2026-04-22 09:59 | 31.02936 | 35.16534 | 12963 ft | 180 kts | 183° |
| 2026-04-22 10:00 | 31.01681 | 35.16525 | 12961 ft | 180 kts | 183° |
| 2026-04-22 10:00 | 31.00430 | 35.16516 | 12962 ft | 180 kts | 183° |
| 2026-04-22 10:00 | 30.99177 | 35.16507 | 12962 ft | 180 kts | 183° |
| 2026-04-22 10:00 | 30.97925 | 35.16498 | 12963 ft | 180 kts | 183° |
| 2026-04-22 10:01 | 30.96670 | 35.16488 | 12963 ft | 181 kts | 183° |
| 2026-04-22 10:01 | 30.95417 | 35.16480 | 12961 ft | 179 kts | 183° |
| 2026-04-22 10:01 | 30.94173 | 35.16469 | 12964 ft | 179 kts | 182° |
| 2026-04-22 10:01 | 30.92943 | 35.16461 | 12959 ft | 179 kts | 183° |
| 2026-04-22 10:02 | 30.91694 | 35.16453 | 12961 ft | 180 kts | 183° |
| 2026-04-22 10:02 | 30.90441 | 35.16444 | 12961 ft | 181 kts | 183° |
| 2026-04-22 10:02 | 30.89182 | 35.16435 | 12960 ft | 181 kts | 183° |
| 2026-04-22 10:02 | 30.87922 | 35.16426 | 12959 ft | 181 kts | 183° |
| 2026-04-22 10:03 | 30.86663 | 35.16416 | 12958 ft | 181 kts | 183° |
| 2026-04-22 10:03 | 30.85406 | 35.16410 | 12960 ft | 181 kts | 184° |
| 2026-04-22 10:03 | 30.84147 | 35.16401 | 12960 ft | 181 kts | 184° |
| 2026-04-22 10:03 | 30.82888 | 35.16386 | 12960 ft | 181 kts | 184° |
| 2026-04-22 10:04 | 30.81630 | 35.16376 | 12958 ft | 181 kts | 184° |
| 2026-04-22 10:04 | 30.80372 | 35.16368 | 12960 ft | 181 kts | 183° |
| 2026-04-22 10:04 | 30.79113 | 35.16362 | 12959 ft | 181 kts | 183° |
| 2026-04-22 10:04 | 30.77854 | 35.16352 | 12959 ft | 181 kts | 183° |
| 2026-04-22 10:05 | 30.76596 | 35.16343 | 12960 ft | 181 kts | 183° |
| 2026-04-22 10:05 | 30.75339 | 35.16334 | 12953 ft | 180 kts | 183° |
| 2026-04-22 10:05 | 30.74086 | 35.16325 | 12958 ft | 180 kts | 183° |
| 2026-04-22 10:05 | 30.72829 | 35.16315 | 12957 ft | 181 kts | 183° |
| 2026-04-22 10:06 | 30.71571 | 35.16307 | 12957 ft | 181 kts | 183° |
| 2026-04-22 10:06 | 30.70315 | 35.16298 | 12958 ft | 181 kts | 183° |
| 2026-04-22 10:06 | 30.69055 | 35.16289 | 12958 ft | 181 kts | 183° |
| 2026-04-22 10:06 | 30.67796 | 35.16287 | 12958 ft | 181 kts | 184° |
| 2026-04-22 10:07 | 30.66538 | 35.16271 | 12957 ft | 181 kts | 184° |
| 2026-04-22 10:07 | 30.65282 | 35.16258 | 12956 ft | 180 kts | 184° |
| 2026-04-22 10:07 | 30.64025 | 35.16250 | 12959 ft | 181 kts | 184° |
| 2026-04-22 10:07 | 30.62767 | 35.16241 | 12956 ft | 181 kts | 184° |
| 2026-04-22 10:08 | 30.61512 | 35.16229 | 12958 ft | 180 kts | 183° |
| 2026-04-22 10:08 | 30.60257 | 35.16226 | 12957 ft | 180 kts | 183° |
| 2026-04-22 10:08 | 30.59019 | 35.16220 | 12958 ft | 180 kts | 183° |
| 2026-04-22 10:08 | 30.57762 | 35.16210 | 12958 ft | 181 kts | 183° |
| 2026-04-22 10:09 | 30.56504 | 35.16200 | 12956 ft | 181 kts | 183° |
| 2026-04-22 10:09 | 30.55260 | 35.16082 | 12967 ft | 178 kts | 193° |
| 2026-04-22 10:09 | 30.54039 | 35.15842 | 12965 ft | 178 kts | 193° |
| 2026-04-22 10:09 | 30.52813 | 35.15597 | 12964 ft | 179 kts | 192° |
| 2026-04-22 10:10 | 30.51985 | 35.15438 | 12962 ft | 178 kts | 193° |
| 2026-04-22 10:10 | 30.50759 | 35.15202 | 12963 ft | 179 kts | 193° |
| 2026-04-22 10:10 | 30.49534 | 35.14965 | 12965 ft | 179 kts | 192° |
| 2026-04-22 10:10 | 30.48307 | 35.14729 | 12956 ft | 178 kts | 192° |
| 2026-04-22 10:11 | 30.47084 | 35.14493 | 12954 ft | 178 kts | 192° |
| 2026-04-22 10:11 | 30.45877 | 35.14260 | 12954 ft | 178 kts | 192° |
| 2026-04-22 10:11 | 30.44651 | 35.14022 | 12956 ft | 179 kts | 192° |
| 2026-04-22 10:11 | 30.43424 | 35.13786 | 12954 ft | 179 kts | 192° |
| 2026-04-22 10:12 | 30.42188 | 35.13547 | 12783 ft | 181 kts | 192° |
| 2026-04-22 10:12 | 30.40945 | 35.13306 | 12604 ft | 178 kts | 192° |
| 2026-04-22 10:12 | 30.39730 | 35.13073 | 12392 ft | 178 kts | 193° |
| 2026-04-22 10:12 | 30.38504 | 35.12836 | 12154 ft | 179 kts | 192° |
| 2026-04-22 10:13 | 30.37275 | 35.12599 | 11912 ft | 179 kts | 193° |
| 2026-04-22 10:13 | 30.36047 | 35.12362 | 11676 ft | 179 kts | 191° |
| 2026-04-22 10:13 | 30.34815 | 35.12127 | 11437 ft | 180 kts | 191° |
| 2026-04-22 10:13 | 30.33582 | 35.11892 | 11195 ft | 179 kts | 193° |
| 2026-04-22 10:14 | 30.32355 | 35.11653 | 10959 ft | 178 kts | 192° |
| 2026-04-22 10:14 | 30.31132 | 35.11424 | 10721 ft | 178 kts | 192° |
| 2026-04-22 10:14 | 30.29915 | 35.11197 | 10490 ft | 177 kts | 191° |
| 2026-04-22 10:14 | 30.28697 | 35.10967 | 10254 ft | 178 kts | 190° |
| 2026-04-22 10:15 | 30.27476 | 35.10740 | 10017 ft | 177 kts | 191° |
| 2026-04-22 10:15 | 30.26261 | 35.10513 | 9773 ft | 176 kts | 190° |
| 2026-04-22 10:15 | 30.25053 | 35.10287 | 9533 ft | 175 kts | 189° |
| 2026-04-22 10:15 | 30.23856 | 35.10063 | 9306 ft | 174 kts | 190° |
| 2026-04-22 10:16 | 30.22669 | 35.09840 | 9078 ft | 172 kts | 189° |
| 2026-04-22 10:16 | 30.21496 | 35.09605 | 8847 ft | 170 kts | 191° |
| 2026-04-22 10:16 | 30.20337 | 35.09360 | 8624 ft | 168 kts | 190° |
| 2026-04-22 10:16 | 30.19197 | 35.09121 | 8405 ft | 166 kts | 190° |
| 2026-04-22 10:17 | 30.18066 | 35.08886 | 8182 ft | 164 kts | 189° |
| 2026-04-22 10:17 | 30.16947 | 35.08653 | 7962 ft | 162 kts | 189° |
| 2026-04-22 10:17 | 30.15855 | 35.08428 | 7751 ft | 161 kts | 189° |
| 2026-04-22 10:17 | 30.14761 | 35.08202 | 7536 ft | 159 kts | 189° |
| 2026-04-22 10:18 | 30.13676 | 35.07977 | 7327 ft | 158 kts | 189° |
| 2026-04-22 10:18 | 30.12598 | 35.07754 | 7121 ft | 158 kts | 189° |
| 2026-04-22 10:18 | 30.11520 | 35.07530 | 6913 ft | 157 kts | 189° |
| 2026-04-22 10:18 | 30.10444 | 35.07311 | 6700 ft | 157 kts | 188° |
| 2026-04-22 10:19 | 30.09379 | 35.07090 | 6495 ft | 154 kts | 188° |
| 2026-04-22 10:19 | 30.08330 | 35.06872 | 6285 ft | 152 kts | 188° |
| 2026-04-22 10:19 | 30.07299 | 35.06658 | 6086 ft | 151 kts | 188° |
| 2026-04-22 10:19 | 30.06246 | 35.06445 | 6039 ft | 154 kts | 187° |
| 2026-04-22 10:20 | 30.05189 | 35.06240 | 6032 ft | 154 kts | 187° |
| 2026-04-22 10:20 | 30.04142 | 35.06036 | 6026 ft | 152 kts | 186° |
| 2026-04-22 10:20 | 30.03092 | 35.05833 | 6030 ft | 154 kts | 186° |
| 2026-04-22 10:20 | 30.02032 | 35.05628 | 6025 ft | 155 kts | 186° |
| 2026-04-22 10:21 | 30.00969 | 35.05421 | 6028 ft | 156 kts | 186° |
| 2026-04-22 10:21 | 29.99896 | 35.05213 | 6026 ft | 157 kts | 187° |
| 2026-04-22 10:21 | 29.98821 | 35.05003 | 6019 ft | 157 kts | 187° |
| 2026-04-22 10:21 | 29.97748 | 35.04794 | 6024 ft | 157 kts | 187° |
| 2026-04-22 10:22 | 29.96666 | 35.04583 | 6019 ft | 158 kts | 187° |
| 2026-04-22 10:22 | 29.95581 | 35.04372 | 6016 ft | 158 kts | 187° |
| 2026-04-22 10:22 | 29.94493 | 35.04160 | 6009 ft | 158 kts | 188° |
| 2026-04-22 10:22 | 29.93414 | 35.03951 | 6011 ft | 157 kts | 187° |
| 2026-04-22 10:23 | 29.92336 | 35.03741 | 6006 ft | 156 kts | 187° |
| 2026-04-22 10:23 | 29.91262 | 35.03532 | 6010 ft | 157 kts | 187° |
| 2026-04-22 10:23 | 29.90195 | 35.03325 | 6009 ft | 158 kts | 187° |
| 2026-04-22 10:23 | 29.89110 | 35.03114 | 6009 ft | 159 kts | 187° |
| 2026-04-22 10:24 | 29.88024 | 35.02905 | 6005 ft | 157 kts | 187° |
| 2026-04-22 10:24 | 29.86946 | 35.02695 | 6006 ft | 157 kts | 187° |
| 2026-04-22 10:24 | 29.85869 | 35.02485 | 6002 ft | 157 kts | 187° |
| 2026-04-22 10:24 | 29.84793 | 35.02275 | 6004 ft | 157 kts | 187° |
| 2026-04-22 10:25 | 29.83715 | 35.02066 | 6000 ft | 157 kts | 186° |
| 2026-04-22 10:25 | 29.82641 | 35.01860 | 6003 ft | 157 kts | 186° |
| 2026-04-22 10:25 | 29.81553 | 35.01802 | 5997 ft | 157 kts | 176° |
| 2026-04-22 10:25 | 29.80456 | 35.01847 | 5998 ft | 159 kts | 176° |
| 2026-04-22 10:26 | 29.79349 | 35.01901 | 5997 ft | 160 kts | 175° |
| 2026-04-22 10:26 | 29.78238 | 35.01953 | 5998 ft | 160 kts | 176° |
| 2026-04-22 10:26 | 29.77126 | 35.02007 | 5997 ft | 160 kts | 175° |
| 2026-04-22 10:26 | 29.76014 | 35.02061 | 5998 ft | 160 kts | 175° |
| 2026-04-22 10:27 | 29.74925 | 35.01811 | 5993 ft | 163 kts | 203° |
| 2026-04-22 10:27 | 29.73906 | 35.01238 | 5911 ft | 164 kts | 204° |
| 2026-04-22 10:27 | 29.72877 | 35.00661 | 5660 ft | 164 kts | 204° |
| 2026-04-22 10:27 | 29.71854 | 35.00092 | 5417 ft | 163 kts | 203° |
| 2026-04-22 10:28 | 29.70833 | 34.99537 | 5171 ft | 162 kts | 204° |
| 2026-04-22 10:28 | 29.69822 | 34.98977 | 4934 ft | 160 kts | 203° |
| 2026-04-22 10:28 | 29.68823 | 34.98418 | 4691 ft | 159 kts | 203° |
| 2026-04-22 10:28 | 29.67832 | 34.97863 | 4440 ft | 158 kts | 204° |
| 2026-04-22 10:29 | 29.66844 | 34.97310 | 4191 ft | 158 kts | 205° |
| 2026-04-22 10:29 | 29.65854 | 34.96755 | 4006 ft | 157 kts | 205° |
| 2026-04-22 10:29 | 29.64902 | 34.96221 | 3884 ft | 153 kts | 204° |
| 2026-04-22 10:29 | 29.63951 | 34.95690 | 3763 ft | 151 kts | 205° |
| 2026-04-22 10:30 | 29.62990 | 34.95153 | 3642 ft | 157 kts | 206° |
| 2026-04-22 10:30 | 29.61997 | 34.94597 | 3523 ft | 161 kts | 206° |
| 2026-04-22 10:30 | 29.60977 | 34.94026 | 3411 ft | 164 kts | 206° |
| 2026-04-22 10:30 | 29.59958 | 34.93455 | 3328 ft | 160 kts | 206° |
| 2026-04-22 10:31 | 29.58980 | 34.92909 | 3325 ft | 154 kts | 206° |
| 2026-04-22 10:31 | 29.58034 | 34.92380 | 3324 ft | 149 kts | 206° |
| 2026-04-22 10:31 | 29.57107 | 34.91862 | 3323 ft | 148 kts | 206° |
| 2026-04-22 10:31 | 29.56183 | 34.91343 | 3322 ft | 147 kts | 206° |
| 2026-04-22 10:32 | 29.55260 | 34.90824 | 3326 ft | 148 kts | 206° |
| 2026-04-22 10:32 | 29.54258 | 34.90654 | 3320 ft | 145 kts | 165° |
| 2026-04-22 10:32 | 29.53492 | 34.91274 | 3325 ft | 135 kts | 120° |
| 2026-04-22 10:32 | 29.53226 | 34.92286 | 3332 ft | 133 kts | 93° |
| 2026-04-22 10:33 | 29.53232 | 34.93348 | 3325 ft | 133 kts | 80° |
| 2026-04-22 10:33 | 29.53423 | 34.94390 | 3328 ft | 134 kts | 75° |
| 2026-04-22 10:33 | 29.53645 | 34.95422 | 3320 ft | 133 kts | 66° |
| 2026-04-22 10:33 | 29.54294 | 34.96116 | 3313 ft | 130 kts | 20° |
| 2026-04-22 10:34 | 29.55156 | 34.96396 | 3319 ft | 129 kts | 14° |
| 2026-04-22 10:34 | 29.56027 | 34.96646 | 3282 ft | 131 kts | 14° |
| 2026-04-22 10:34 | 29.56930 | 34.96904 | 3125 ft | 139 kts | 14° |
| 2026-04-22 10:34 | 29.57880 | 34.97177 | 2931 ft | 130 kts | 14° |
| 2026-04-22 10:35 | 29.58696 | 34.97410 | 2776 ft | 114 kts | 14° |
| 2026-04-22 10:35 | 29.59426 | 34.97618 | 2639 ft | 107 kts | 13° |
| 2026-04-22 10:35 | 29.60133 | 34.97820 | 2494 ft | 103 kts | 14° |
| 2026-04-22 10:35 | 29.60799 | 34.98011 | 2366 ft | 94 kts | 14° |
| 2026-04-22 10:36 | 29.61421 | 34.98188 | 2244 ft | 92 kts | 13° |
| 2026-04-22 10:36 | 29.62049 | 34.98367 | 2122 ft | 93 kts | 12° |
| 2026-04-22 10:36 | 29.62678 | 34.98547 | 1999 ft | 93 kts | 13° |
| 2026-04-22 10:36 | 29.63299 | 34.98725 | 1871 ft | 90 kts | 13° |
| 2026-04-22 10:37 | 29.63899 | 34.98896 | 1754 ft | 87 kts | 13° |
| 2026-04-22 10:37 | 29.65075 | 34.99231 | 1523 ft | 91 kts | 13° |
| 2026-04-22 10:37 | 29.65717 | 34.99412 | 1409 ft | 98 kts | 14° |
| 2026-04-22 10:38 | 29.66392 | 34.99607 | 1278 ft | 101 kts | 14° |
| 2026-04-22 10:38 | 29.67081 | 34.99805 | 1116 ft | 102 kts | 13° |
| 2026-04-22 10:38 | 29.67764 | 35.00001 | 985 ft | 101 kts | 14° |
| 2026-04-22 10:38 | 29.68442 | 35.00195 | 843 ft | 99 kts | 15° |
| 2026-04-22 10:39 | 29.69084 | 35.00379 | 716 ft | 91 kts | 16° |
| 2026-04-22 10:39 | 29.69697 | 35.00554 | 598 ft | 92 kts | 14° |
| 2026-04-22 10:39 | 29.70296 | 35.00724 | 493 ft | 87 kts | 13° |
| 2026-04-22 10:39 | 29.70893 | 35.00892 | 377 ft | 88 kts | 14° |
| 2026-04-22 10:40 | 29.71484 | 35.01058 | 271 ft | 81 kts | 14° |
| 2026-04-22 10:40 | 29.71893 | 35.01180 | 260 ft | 44 kts | 13° |
| 2026-04-22 10:40 | 29.72116 | 35.01239 | 259 ft | 25 kts | 12° |
| 2026-04-22 10:40 | 29.72208 | 35.01179 | 255 ft | 17 kts | 287° |
| 2026-04-22 10:41 | 29.72217 | 35.01122 | 250 ft | 0 kts | 279° |
| 2026-04-22 10:41 | 29.72219 | 35.01073 | 248 ft | 15 kts | 249° |
| 2026-04-22 10:41 | 29.72232 | 35.00935 | 246 ft | 19 kts | 283° |
| 2026-04-22 10:42 | 29.72253 | 35.00828 | 246 ft | 0 kts | 283° |